sensor_id;sensor_type;location;lat;lon;timestamp;temperature;humidity
14873;DHT22;7528;48.576;19.122;2022-07-10T00:04:56;21.00;51.60
14873;DHT22;7528;48.576;19.122;2022-07-10T00:10:03;20.90;52.00
14873;DHT22;7528;48.576;19.122;2022-07-10T00:15:11;20.80;52.20
14873;DHT22;7528;48.576;19.122;2022-07-10T00:20:16;20.70;52.30
14873;DHT22;7528;48.576;19.122;2022-07-10T00:25:20;20.60;52.60
14873;DHT22;7528;48.576;19.122;2022-07-10T00:30:26;20.50;52.80
14873;DHT22;7528;48.576;19.122;2022-07-10T00:35:31;20.40;53.10
14873;DHT22;7528;48.576;19.122;2022-07-10T00:40:35;20.30;53.40
14873;DHT22;7528;48.576;19.122;2022-07-10T00:45:41;20.20;53.50
14873;DHT22;7528;48.576;19.122;2022-07-10T00:50:46;20.20;53.90
14873;DHT22;7528;48.576;19.122;2022-07-10T00:55:50;20.10;54.00
14873;DHT22;7528;48.576;19.122;2022-07-10T01:00:57;20.00;54.30
14873;DHT22;7528;48.576;19.122;2022-07-10T01:06:02;19.90;54.50
14873;DHT22;7528;48.576;19.122;2022-07-10T01:11:07;19.80;54.40
14873;DHT22;7528;48.576;19.122;2022-07-10T01:16:13;19.60;54.80
14873;DHT22;7528;48.576;19.122;2022-07-10T01:21:25;19.50;55.20
14873;DHT22;7528;48.576;19.122;2022-07-10T01:26:30;19.40;55.50
14873;DHT22;7528;48.576;19.122;2022-07-10T01:31:35;19.40;55.60
14873;DHT22;7528;48.576;19.122;2022-07-10T01:36:43;19.40;55.90
14873;DHT22;7528;48.576;19.122;2022-07-10T01:41:47;19.30;55.90
14873;DHT22;7528;48.576;19.122;2022-07-10T01:46:51;19.10;56.50
14873;DHT22;7528;48.576;19.122;2022-07-10T01:51:59;19.00;56.70
14873;DHT22;7528;48.576;19.122;2022-07-10T01:57:03;19.00;56.80
14873;DHT22;7528;48.576;19.122;2022-07-10T02:02:08;18.90;56.60
14873;DHT22;7528;48.576;19.122;2022-07-10T02:07:16;18.90;57.00
14873;DHT22;7528;48.576;19.122;2022-07-10T02:12:20;18.80;57.00
14873;DHT22;7528;48.576;19.122;2022-07-10T02:17:25;18.70;57.60
14873;DHT22;7528;48.576;19.122;2022-07-10T02:22:31;18.70;57.70
14873;DHT22;7528;48.576;19.122;2022-07-10T02:27:37;18.80;58.40
14873;DHT22;7528;48.576;19.122;2022-07-10T02:32:42;18.60;57.90
14873;DHT22;7528;48.576;19.122;2022-07-10T02:37:48;18.50;58.30
14873;DHT22;7528;48.576;19.122;2022-07-10T02:42:52;18.40;58.40
14873;DHT22;7528;48.576;19.122;2022-07-10T02:48:00;18.40;58.50
14873;DHT22;7528;48.576;19.122;2022-07-10T02:53:07;18.40;58.90
14873;DHT22;7528;48.576;19.122;2022-07-10T02:58:11;18.20;59.50
14873;DHT22;7528;48.576;19.122;2022-07-10T03:03:17;18.20;59.50
14873;DHT22;7528;48.576;19.122;2022-07-10T03:08:23;18.10;59.50
14873;DHT22;7528;48.576;19.122;2022-07-10T03:13:27;18.10;59.70
14873;DHT22;7528;48.576;19.122;2022-07-10T03:18:31;18.10;60.00
14873;DHT22;7528;48.576;19.122;2022-07-10T03:23:37;18.00;60.60
14873;DHT22;7528;48.576;19.122;2022-07-10T03:28:42;17.90;61.10
14873;DHT22;7528;48.576;19.122;2022-07-10T03:33:46;17.90;60.70
14873;DHT22;7528;48.576;19.122;2022-07-10T03:38:57;17.80;61.20
14873;DHT22;7528;48.576;19.122;2022-07-10T03:44:01;17.90;61.60
14873;DHT22;7528;48.576;19.122;2022-07-10T03:49:05;17.80;61.10
14873;DHT22;7528;48.576;19.122;2022-07-10T03:54:12;17.80;61.40
14873;DHT22;7528;48.576;19.122;2022-07-10T03:59:16;17.70;61.70
14873;DHT22;7528;48.576;19.122;2022-07-10T04:04:20;17.70;62.20
14873;DHT22;7528;48.576;19.122;2022-07-10T04:09:26;17.70;62.30
14873;DHT22;7528;48.576;19.122;2022-07-10T04:14:31;17.60;63.00
14873;DHT22;7528;48.576;19.122;2022-07-10T04:19:35;17.80;62.90
14873;DHT22;7528;48.576;19.122;2022-07-10T04:24:41;18.00;62.70
14873;DHT22;7528;48.576;19.122;2022-07-10T04:29:46;17.90;62.60
14873;DHT22;7528;48.576;19.122;2022-07-10T04:34:49;18.00;62.60
14873;DHT22;7528;48.576;19.122;2022-07-10T04:39:58;18.00;62.10
14873;DHT22;7528;48.576;19.122;2022-07-10T04:45:05;18.10;62.80
14873;DHT22;7528;48.576;19.122;2022-07-10T04:50:09;18.10;62.60
14873;DHT22;7528;48.576;19.122;2022-07-10T04:55:23;18.20;62.80
14873;DHT22;7528;48.576;19.122;2022-07-10T05:00:27;18.20;63.10
14873;DHT22;7528;48.576;19.122;2022-07-10T05:05:32;18.30;62.90
14873;DHT22;7528;48.576;19.122;2022-07-10T05:10:38;18.40;63.30
14873;DHT22;7528;48.576;19.122;2022-07-10T05:15:50;18.50;63.40
14873;DHT22;7528;48.576;19.122;2022-07-10T05:20:54;18.70;63.10
14873;DHT22;7528;48.576;19.122;2022-07-10T05:26:00;18.90;62.90
14873;DHT22;7528;48.576;19.122;2022-07-10T05:31:05;18.90;62.80
14873;DHT22;7528;48.576;19.122;2022-07-10T05:36:09;19.10;62.60
14873;DHT22;7528;48.576;19.122;2022-07-10T05:41:15;19.20;62.80
14873;DHT22;7528;48.576;19.122;2022-07-10T05:46:20;19.40;62.50
14873;DHT22;7528;48.576;19.122;2022-07-10T05:51:25;19.60;62.90
14873;DHT22;7528;48.576;19.122;2022-07-10T05:56:31;19.70;61.40
14873;DHT22;7528;48.576;19.122;2022-07-10T06:01:35;19.90;61.40
14873;DHT22;7528;48.576;19.122;2022-07-10T06:06:40;20.00;60.80
14873;DHT22;7528;48.576;19.122;2022-07-10T06:11:46;20.10;61.00
14873;DHT22;7528;48.576;19.122;2022-07-10T06:16:52;20.30;60.10
14873;DHT22;7528;48.576;19.122;2022-07-10T06:21:57;20.30;59.50
14873;DHT22;7528;48.576;19.122;2022-07-10T06:27:20;20.40;59.60
14873;DHT22;7528;48.576;19.122;2022-07-10T06:32:25;20.50;59.50
14873;DHT22;7528;48.576;19.122;2022-07-10T06:37:30;20.50;59.40
14873;DHT22;7528;48.576;19.122;2022-07-10T06:42:36;20.60;58.80
14873;DHT22;7528;48.576;19.122;2022-07-10T06:47:44;20.70;58.40
14873;DHT22;7528;48.576;19.122;2022-07-10T06:53:01;20.70;58.60
14873;DHT22;7528;48.576;19.122;2022-07-10T06:58:08;20.80;58.10
14873;DHT22;7528;48.576;19.122;2022-07-10T07:03:13;20.90;58.20
14873;DHT22;7528;48.576;19.122;2022-07-10T07:08:17;21.10;57.90
14873;DHT22;7528;48.576;19.122;2022-07-10T07:13:22;21.20;58.30
14873;DHT22;7528;48.576;19.122;2022-07-10T07:18:26;21.20;57.60
14873;DHT22;7528;48.576;19.122;2022-07-10T07:23:35;21.30;57.90
14873;DHT22;7528;48.576;19.122;2022-07-10T07:28:40;21.50;56.60
14873;DHT22;7528;48.576;19.122;2022-07-10T07:33:44;21.70;56.70
14873;DHT22;7528;48.576;19.122;2022-07-10T07:38:48;22.00;56.20
14873;DHT22;7528;48.576;19.122;2022-07-10T07:43:56;22.20;55.90
14873;DHT22;7528;48.576;19.122;2022-07-10T07:49:00;22.50;54.30
14873;DHT22;7528;48.576;19.122;2022-07-10T07:54:04;23.10;53.90
14873;DHT22;7528;48.576;19.122;2022-07-10T07:59:20;23.40;51.80
14873;DHT22;7528;48.576;19.122;2022-07-10T08:04:25;23.40;51.80
14873;DHT22;7528;48.576;19.122;2022-07-10T08:09:29;23.50;50.80
14873;DHT22;7528;48.576;19.122;2022-07-10T08:14:36;23.50;49.70
14873;DHT22;7528;48.576;19.122;2022-07-10T08:19:40;23.40;48.40
14873;DHT22;7528;48.576;19.122;2022-07-10T08:24:44;23.30;48.90
14873;DHT22;7528;48.576;19.122;2022-07-10T08:29:49;23.10;50.00
14873;DHT22;7528;48.576;19.122;2022-07-10T08:34:53;23.30;49.70
14873;DHT22;7528;48.576;19.122;2022-07-10T08:39:57;23.40;49.70
14873;DHT22;7528;48.576;19.122;2022-07-10T08:45:04;23.70;47.50
14873;DHT22;7528;48.576;19.122;2022-07-10T08:50:16;23.80;49.00
14873;DHT22;7528;48.576;19.122;2022-07-10T08:55:25;23.60;52.00
14873;DHT22;7528;48.576;19.122;2022-07-10T09:00:31;23.30;54.70
14873;DHT22;7528;48.576;19.122;2022-07-10T09:05:35;23.20;55.40
14873;DHT22;7528;48.576;19.122;2022-07-10T09:10:39;23.20;54.80
14873;DHT22;7528;48.576;19.122;2022-07-10T09:15:49;23.20;54.20
14873;DHT22;7528;48.576;19.122;2022-07-10T09:20:54;23.10;56.30
14873;DHT22;7528;48.576;19.122;2022-07-10T09:26:04;23.20;55.90
14873;DHT22;7528;48.576;19.122;2022-07-10T09:31:10;23.10;54.00
14873;DHT22;7528;48.576;19.122;2022-07-10T09:36:16;23.30;55.40
14873;DHT22;7528;48.576;19.122;2022-07-10T09:41:23;23.70;52.20
14873;DHT22;7528;48.576;19.122;2022-07-10T09:46:32;24.00;52.00
14873;DHT22;7528;48.576;19.122;2022-07-10T09:51:37;24.30;50.00
14873;DHT22;7528;48.576;19.122;2022-07-10T09:56:43;24.50;48.10
14873;DHT22;7528;48.576;19.122;2022-07-10T10:01:52;24.70;45.90
14873;DHT22;7528;48.576;19.122;2022-07-10T10:06:58;24.80;46.10
14873;DHT22;7528;48.576;19.122;2022-07-10T10:12:07;25.00;46.20
14873;DHT22;7528;48.576;19.122;2022-07-10T10:17:16;25.30;42.50
14873;DHT22;7528;48.576;19.122;2022-07-10T10:22:21;25.50;42.30
14873;DHT22;7528;48.576;19.122;2022-07-10T10:27:27;25.80;39.40
14873;DHT22;7528;48.576;19.122;2022-07-10T10:32:39;26.00;39.50
14873;DHT22;7528;48.576;19.122;2022-07-10T10:37:51;26.00;39.30
14873;DHT22;7528;48.576;19.122;2022-07-10T10:42:55;26.10;40.80
14873;DHT22;7528;48.576;19.122;2022-07-10T10:48:02;26.20;40.00
14873;DHT22;7528;48.576;19.122;2022-07-10T10:53:16;26.20;37.50
14873;DHT22;7528;48.576;19.122;2022-07-10T10:58:20;26.20;34.60
14873;DHT22;7528;48.576;19.122;2022-07-10T11:03:27;26.30;34.80
14873;DHT22;7528;48.576;19.122;2022-07-10T11:08:37;26.50;34.90
14873;DHT22;7528;48.576;19.122;2022-07-10T11:13:41;26.70;35.30
14873;DHT22;7528;48.576;19.122;2022-07-10T11:18:52;26.80;33.90
14873;DHT22;7528;48.576;19.122;2022-07-10T11:24:02;27.00;33.10
14873;DHT22;7528;48.576;19.122;2022-07-10T11:29:09;27.00;32.70
14873;DHT22;7528;48.576;19.122;2022-07-10T11:34:16;27.10;34.50
14873;DHT22;7528;48.576;19.122;2022-07-10T11:39:20;27.10;34.30
14873;DHT22;7528;48.576;19.122;2022-07-10T11:44:24;27.10;34.20
14873;DHT22;7528;48.576;19.122;2022-07-10T11:49:31;27.00;35.40
14873;DHT22;7528;48.576;19.122;2022-07-10T11:54:36;27.00;36.40
14873;DHT22;7528;48.576;19.122;2022-07-10T11:59:43;26.90;36.70
14873;DHT22;7528;48.576;19.122;2022-07-10T12:04:49;27.00;35.80
14873;DHT22;7528;48.576;19.122;2022-07-10T12:09:53;27.00;36.50
14873;DHT22;7528;48.576;19.122;2022-07-10T12:14:58;27.10;35.70
14873;DHT22;7528;48.576;19.122;2022-07-10T12:20:04;27.10;34.00
14873;DHT22;7528;48.576;19.122;2022-07-10T12:25:09;27.00;34.30
14873;DHT22;7528;48.576;19.122;2022-07-10T12:30:14;27.00;34.10
14873;DHT22;7528;48.576;19.122;2022-07-10T12:35:22;27.10;32.80
14873;DHT22;7528;48.576;19.122;2022-07-10T12:40:33;27.00;32.20
14873;DHT22;7528;48.576;19.122;2022-07-10T12:45:37;27.00;34.60
14873;DHT22;7528;48.576;19.122;2022-07-10T12:50:43;27.20;30.80
14873;DHT22;7528;48.576;19.122;2022-07-10T12:55:49;26.80;30.00
14873;DHT22;7528;48.576;19.122;2022-07-10T13:00:55;26.80;30.80
14873;DHT22;7528;48.576;19.122;2022-07-10T13:06:01;26.80;30.90
14873;DHT22;7528;48.576;19.122;2022-07-10T13:11:05;26.90;30.80
14873;DHT22;7528;48.576;19.122;2022-07-10T13:18:32;26.50;32.80
14873;DHT22;7528;48.576;19.122;2022-07-10T13:23:37;26.20;35.90
14873;DHT22;7528;48.576;19.122;2022-07-10T13:28:41;25.90;37.90
14873;DHT22;7528;48.576;19.122;2022-07-10T13:33:50;25.50;37.70
14873;DHT22;7528;48.576;19.122;2022-07-10T13:38:56;25.10;38.30
14873;DHT22;7528;48.576;19.122;2022-07-10T13:44:01;25.00;38.90
14873;DHT22;7528;48.576;19.122;2022-07-10T13:49:07;25.10;37.90
14873;DHT22;7528;48.576;19.122;2022-07-10T13:54:11;25.10;38.10
14873;DHT22;7528;48.576;19.122;2022-07-10T13:59:16;25.10;37.40
14873;DHT22;7528;48.576;19.122;2022-07-10T14:04:22;24.90;37.90
14873;DHT22;7528;48.576;19.122;2022-07-10T14:09:26;24.90;38.60
14873;DHT22;7528;48.576;19.122;2022-07-10T14:14:30;24.90;39.20
14873;DHT22;7528;48.576;19.122;2022-07-10T14:19:36;25.10;39.80
14873;DHT22;7528;48.576;19.122;2022-07-10T14:24:39;25.30;38.40
14873;DHT22;7528;48.576;19.122;2022-07-10T14:29:44;25.30;40.00
14873;DHT22;7528;48.576;19.122;2022-07-10T14:34:50;25.30;39.40
14873;DHT22;7528;48.576;19.122;2022-07-10T14:45:12;25.30;37.10
14873;DHT22;7528;48.576;19.122;2022-07-10T14:50:19;25.20;37.10
14873;DHT22;7528;48.576;19.122;2022-07-10T15:00:44;25.30;35.50
14873;DHT22;7528;48.576;19.122;2022-07-10T15:06:18;25.30;35.70
14873;DHT22;7528;48.576;19.122;2022-07-10T15:11:23;25.20;35.40
14873;DHT22;7528;48.576;19.122;2022-07-10T15:16:54;25.20;35.30
14873;DHT22;7528;48.576;19.122;2022-07-10T15:27:28;25.10;35.00
14873;DHT22;7528;48.576;19.122;2022-07-10T15:32:34;25.00;35.80
14873;DHT22;7528;48.576;19.122;2022-07-10T15:38:01;24.90;36.00
14873;DHT22;7528;48.576;19.122;2022-07-10T15:43:10;24.90;36.30
14873;DHT22;7528;48.576;19.122;2022-07-10T15:48:16;24.80;35.50
14873;DHT22;7528;48.576;19.122;2022-07-10T15:53:21;24.60;36.20
14873;DHT22;7528;48.576;19.122;2022-07-10T15:58:27;24.50;36.30
14873;DHT22;7528;48.576;19.122;2022-07-10T16:03:31;24.40;37.10
14873;DHT22;7528;48.576;19.122;2022-07-10T16:08:35;24.40;36.70
14873;DHT22;7528;48.576;19.122;2022-07-10T16:13:42;24.30;36.90
14873;DHT22;7528;48.576;19.122;2022-07-10T16:18:50;24.30;35.90
14873;DHT22;7528;48.576;19.122;2022-07-10T16:23:55;24.20;35.80
14873;DHT22;7528;48.576;19.122;2022-07-10T16:29:02;24.00;35.40
14873;DHT22;7528;48.576;19.122;2022-07-10T16:34:08;24.00;35.20
14873;DHT22;7528;48.576;19.122;2022-07-10T16:39:12;23.80;36.40
14873;DHT22;7528;48.576;19.122;2022-07-10T16:44:18;23.70;36.10
14873;DHT22;7528;48.576;19.122;2022-07-10T16:49:23;23.80;36.90
14873;DHT22;7528;48.576;19.122;2022-07-10T16:54:28;23.70;36.90
14873;DHT22;7528;48.576;19.122;2022-07-10T16:59:35;23.60;37.20
14873;DHT22;7528;48.576;19.122;2022-07-10T17:04:39;23.50;38.10
14873;DHT22;7528;48.576;19.122;2022-07-10T17:09:43;23.30;38.80
14873;DHT22;7528;48.576;19.122;2022-07-10T17:14:48;23.10;38.50
14873;DHT22;7528;48.576;19.122;2022-07-10T18:10:37;20.40;46.60
14873;DHT22;7528;48.576;19.122;2022-07-10T18:15:41;21.10;44.10
14873;DHT22;7528;48.576;19.122;2022-07-10T18:20:45;21.30;44.20
14873;DHT22;7528;48.576;19.122;2022-07-10T18:25:51;21.50;43.80
14873;DHT22;7528;48.576;19.122;2022-07-10T18:36:10;21.30;43.80
14873;DHT22;7528;48.576;19.122;2022-07-10T18:41:16;21.20;43.90
14873;DHT22;7528;48.576;19.122;2022-07-10T18:46:23;21.20;44.10
14873;DHT22;7528;48.576;19.122;2022-07-10T18:51:30;21.00;44.50
14873;DHT22;7528;48.576;19.122;2022-07-10T18:56:36;20.90;44.40
14873;DHT22;7528;48.576;19.122;2022-07-10T19:01:39;20.80;45.00
14873;DHT22;7528;48.576;19.122;2022-07-10T19:06:43;20.80;45.00
14873;DHT22;7528;48.576;19.122;2022-07-10T19:11:49;20.70;45.50
14873;DHT22;7528;48.576;19.122;2022-07-10T19:16:55;20.60;45.50
14873;DHT22;7528;48.576;19.122;2022-07-10T19:21:59;20.40;46.20
14873;DHT22;7528;48.576;19.122;2022-07-10T19:27:06;20.40;45.80
14873;DHT22;7528;48.576;19.122;2022-07-10T19:32:10;20.30;45.90
14873;DHT22;7528;48.576;19.122;2022-07-10T19:37:14;20.20;46.60
14873;DHT22;7528;48.576;19.122;2022-07-10T19:42:20;20.20;46.90
14873;DHT22;7528;48.576;19.122;2022-07-10T19:47:24;20.10;46.90
14873;DHT22;7528;48.576;19.122;2022-07-10T19:52:28;19.90;47.60
14873;DHT22;7528;48.576;19.122;2022-07-10T19:57:35;19.90;47.40
14873;DHT22;7528;48.576;19.122;2022-07-10T20:02:41;19.80;48.20
14873;DHT22;7528;48.576;19.122;2022-07-10T20:07:45;19.80;48.80
14873;DHT22;7528;48.576;19.122;2022-07-10T20:12:51;19.80;48.60
14873;DHT22;7528;48.576;19.122;2022-07-10T20:17:56;19.80;48.40
14873;DHT22;7528;48.576;19.122;2022-07-10T20:23:00;19.80;48.30
14873;DHT22;7528;48.576;19.122;2022-07-10T20:28:06;19.70;48.20
14873;DHT22;7528;48.576;19.122;2022-07-10T20:33:12;19.70;48.50
14873;DHT22;7528;48.576;19.122;2022-07-10T20:38:17;19.70;48.60
14873;DHT22;7528;48.576;19.122;2022-07-10T20:43:22;19.70;48.70
14873;DHT22;7528;48.576;19.122;2022-07-10T20:48:27;19.70;48.40
14873;DHT22;7528;48.576;19.122;2022-07-10T20:53:30;19.80;47.80
14873;DHT22;7528;48.576;19.122;2022-07-10T20:58:36;19.70;47.80
14873;DHT22;7528;48.576;19.122;2022-07-10T21:03:40;19.60;48.80
14873;DHT22;7528;48.576;19.122;2022-07-10T21:08:43;19.60;48.30
14873;DHT22;7528;48.576;19.122;2022-07-10T21:13:49;19.50;48.90
14873;DHT22;7528;48.576;19.122;2022-07-10T21:18:53;19.30;49.00
14873;DHT22;7528;48.576;19.122;2022-07-10T21:23:58;19.20;49.60
14873;DHT22;7528;48.576;19.122;2022-07-10T21:29:04;19.10;49.30
14873;DHT22;7528;48.576;19.122;2022-07-10T21:34:08;19.00;49.60
14873;DHT22;7528;48.576;19.122;2022-07-10T21:39:12;18.90;49.70
14873;DHT22;7528;48.576;19.122;2022-07-10T21:44:18;18.80;50.10
14873;DHT22;7528;48.576;19.122;2022-07-10T21:49:22;18.70;50.50
14873;DHT22;7528;48.576;19.122;2022-07-10T21:54:26;18.50;51.00
14873;DHT22;7528;48.576;19.122;2022-07-10T21:59:32;18.40;51.20
14873;DHT22;7528;48.576;19.122;2022-07-10T22:04:36;18.30;51.10
14873;DHT22;7528;48.576;19.122;2022-07-10T22:09:41;18.10;51.60
14873;DHT22;7528;48.576;19.122;2022-07-10T22:14:47;18.10;52.00
14873;DHT22;7528;48.576;19.122;2022-07-10T22:19:51;18.10;51.80
14873;DHT22;7528;48.576;19.122;2022-07-10T22:24:55;18.20;51.70
14873;DHT22;7528;48.576;19.122;2022-07-10T22:30:01;18.10;52.00
14873;DHT22;7528;48.576;19.122;2022-07-10T22:35:06;18.10;52.00
14873;DHT22;7528;48.576;19.122;2022-07-10T22:40:12;18.10;52.50
14873;DHT22;7528;48.576;19.122;2022-07-10T22:45:17;18.00;52.50
14873;DHT22;7528;48.576;19.122;2022-07-10T22:50:21;17.90;52.80
14873;DHT22;7528;48.576;19.122;2022-07-10T22:55:25;17.80;53.00
14873;DHT22;7528;48.576;19.122;2022-07-10T23:00:31;17.80;52.90
14873;DHT22;7528;48.576;19.122;2022-07-10T23:05:36;17.80;53.30
14873;DHT22;7528;48.576;19.122;2022-07-10T23:10:41;17.80;53.20
14873;DHT22;7528;48.576;19.122;2022-07-10T23:15:46;17.80;53.00
14873;DHT22;7528;48.576;19.122;2022-07-10T23:20:51;17.70;53.30
14873;DHT22;7528;48.576;19.122;2022-07-10T23:25:55;17.70;53.50
14873;DHT22;7528;48.576;19.122;2022-07-10T23:31:02;17.50;53.90
14873;DHT22;7528;48.576;19.122;2022-07-10T23:36:07;17.50;54.30
14873;DHT22;7528;48.576;19.122;2022-07-10T23:41:11;17.30;54.60
14873;DHT22;7528;48.576;19.122;2022-07-10T23:46:16;17.20;55.00
14873;DHT22;7528;48.576;19.122;2022-07-10T23:51:20;17.30;55.00
14873;DHT22;7528;48.576;19.122;2022-07-10T23:56:25;17.30;55.20
